createdAt,value
2023-01-23T00:02:08.166Z,21.80
2023-01-23T00:04:34.643Z,20.30
2023-01-23T00:07:03.429Z,19.93
2023-01-23T00:09:30.188Z,21.67
2023-01-23T00:11:56.658Z,21.37
2023-01-23T00:14:23.174Z,23.60
2023-01-23T00:16:49.810Z,21.50
2023-01-23T00:19:16.275Z,21.40
2023-01-23T00:21:42.912Z,22.97
2023-01-23T00:24:11.283Z,21.83
2023-01-23T00:26:37.809Z,22.53
2023-01-23T00:29:04.716Z,23.40
2023-01-23T00:31:37.652Z,22.97
2023-01-23T00:34:07.157Z,22.77
2023-01-23T00:36:36.515Z,23.30
2023-01-23T00:39:06.900Z,22.87
2023-01-23T00:41:33.695Z,23.17
2023-01-23T00:44:00.227Z,24.07
2023-01-23T00:46:26.970Z,22.30
2023-01-23T00:48:53.460Z,23.07
2023-01-23T00:51:20.053Z,23.63
2023-01-23T00:53:46.920Z,23.23
2023-01-23T00:56:13.719Z,23.83
2023-01-23T00:58:42.826Z,23.63
2023-01-23T01:01:11.671Z,23.50
2023-01-23T01:03:38.288Z,21.90
2023-01-23T01:06:05.065Z,23.57
2023-01-23T01:08:31.604Z,22.97
2023-01-23T01:10:58.265Z,23.67
2023-01-23T01:13:25.069Z,23.90
2023-01-23T01:15:52.922Z,23.80
2023-01-23T01:18:20.807Z,23.07
2023-01-23T01:20:48.142Z,22.80
2023-01-23T01:23:15.024Z,23.20
2023-01-23T01:25:41.748Z,22.37
2023-01-23T01:28:08.477Z,23.47
2023-01-23T01:30:37.103Z,24.53
2023-01-23T01:33:03.851Z,22.97
2023-01-23T01:35:30.424Z,23.37
2023-01-23T01:37:57.055Z,24.03
2023-01-23T01:40:26.592Z,23.77
2023-01-23T01:42:59.658Z,23.60
2023-01-23T01:46:03.741Z,24.20
2023-01-23T01:48:35.163Z,23.83
2023-01-23T01:51:05.778Z,23.13
2023-01-23T01:53:33.233Z,23.43
2023-01-23T01:56:00.527Z,23.77
2023-01-23T01:58:27.548Z,24.03
2023-01-23T02:00:54.932Z,24.60
2023-01-23T02:03:21.661Z,22.80
2023-01-23T02:05:49.935Z,24.77
2023-01-23T02:08:42.261Z,24.17
2023-01-23T02:11:08.869Z,24.50
2023-01-23T02:13:40.076Z,23.40
2023-01-23T02:16:08.119Z,24.77
2023-01-23T02:18:36.512Z,24.37
2023-01-23T02:21:07.664Z,25.00
2023-01-23T02:23:58.397Z,23.03
2023-01-23T02:26:45.845Z,24.30
2023-01-23T02:29:13.641Z,25.80
2023-01-23T02:31:42.827Z,25.87
2023-01-23T02:34:11.155Z,24.90
2023-01-23T02:36:37.874Z,23.07
2023-01-23T02:39:09.876Z,25.57
2023-01-23T02:41:46.067Z,25.53
2023-01-23T02:44:27.642Z,25.70
2023-01-23T02:46:59.482Z,25.07
2023-01-23T02:49:26.573Z,25.00
2023-01-23T02:51:54.197Z,24.57
2023-01-23T02:54:21.659Z,24.20
2023-01-23T02:56:48.211Z,25.43
2023-01-23T02:59:33.373Z,24.03
2023-01-23T03:02:00.308Z,24.40
2023-01-23T03:04:26.894Z,25.67
2023-01-23T03:06:53.449Z,27.23
2023-01-23T03:09:20.177Z,26.40
2023-01-23T03:11:46.805Z,27.37
2023-01-23T03:14:16.127Z,25.90
2023-01-23T03:16:42.998Z,26.70
2023-01-23T03:19:10.205Z,26.97
2023-01-23T03:21:40.987Z,26.20
2023-01-23T03:24:09.611Z,25.03
2023-01-23T03:26:39.746Z,26.70
2023-01-23T03:29:25.533Z,25.03
2023-01-23T03:31:52.548Z,26.77
2023-01-23T03:34:19.127Z,22.93
2023-01-23T03:36:46.090Z,24.47
2023-01-23T03:39:31.645Z,24.93
2023-01-23T03:41:58.292Z,26.77
2023-01-23T03:44:24.827Z,26.37
2023-01-23T03:46:52.409Z,25.40
2023-01-23T03:49:19.502Z,25.90
2023-01-23T03:51:46.140Z,24.80
2023-01-23T03:54:14.560Z,26.97
2023-01-23T03:56:42.953Z,25.77
2023-01-23T03:59:09.685Z,24.50
2023-01-23T04:01:36.731Z,25.57
2023-01-23T04:04:03.424Z,25.63
2023-01-23T04:06:30.168Z,24.57
2023-01-23T04:08:58.188Z,24.93
2023-01-23T04:11:28.645Z,25.83
2023-01-23T04:13:55.315Z,24.07
2023-01-23T04:16:22.899Z,23.20
2023-01-23T04:18:50.708Z,24.33
2023-01-23T04:21:17.428Z,27.80
2023-01-23T04:23:44.097Z,24.57
2023-01-23T04:26:10.778Z,27.13
2023-01-23T04:28:37.267Z,25.77
2023-01-23T04:31:04.367Z,25.37
2023-01-23T04:33:31.141Z,25.30
2023-01-23T04:36:03.607Z,25.03
2023-01-23T04:38:31.464Z,26.23
2023-01-23T04:40:58.025Z,25.70
2023-01-23T04:43:25.352Z,26.37
2023-01-23T04:45:53.508Z,26.20
2023-01-23T04:48:20.104Z,24.90
2023-01-23T04:50:46.570Z,24.57
2023-01-23T04:53:14.278Z,24.97
2023-01-23T04:55:41.235Z,24.47
2023-01-23T04:58:08.140Z,24.47
2023-01-23T05:00:34.874Z,25.23
2023-01-23T05:03:02.650Z,24.67
2023-01-23T05:05:29.322Z,26.03
2023-01-23T05:07:56.161Z,23.70
2023-01-23T05:10:22.874Z,23.83
2023-01-23T05:12:49.547Z,22.87
2023-01-23T05:15:17.357Z,24.83
2023-01-23T05:17:44.058Z,24.50
2023-01-23T05:20:11.079Z,25.20
2023-01-23T05:22:37.784Z,24.37
2023-01-23T05:25:04.636Z,24.17
2023-01-23T05:27:31.265Z,24.33
2023-01-23T05:29:57.936Z,24.50
2023-01-23T05:32:24.442Z,24.67
2023-01-23T05:34:50.943Z,25.97
2023-01-23T05:37:17.675Z,24.27
2023-01-23T05:39:44.339Z,23.83
2023-01-23T05:42:10.835Z,25.00
2023-01-23T05:44:37.449Z,24.63
2023-01-23T05:47:04.035Z,23.43
2023-01-23T05:49:30.532Z,24.97
2023-01-23T05:51:57.117Z,24.73
2023-01-23T05:54:23.714Z,23.83
2023-01-23T05:56:50.198Z,23.33
2023-01-23T05:59:16.744Z,25.33
2023-01-23T06:01:43.256Z,24.93
2023-01-23T06:04:09.799Z,24.20
2023-01-23T06:06:36.672Z,23.30
2023-01-23T06:09:03.473Z,23.90
2023-01-23T06:11:30.037Z,24.27
2023-01-23T06:13:56.900Z,23.87
2023-01-23T06:16:23.396Z,24.90
2023-01-23T06:18:49.913Z,23.37
2023-01-23T06:21:18.501Z,23.93
2023-01-23T06:23:45.976Z,24.80
2023-01-23T06:26:13.173Z,25.50
2023-01-23T06:28:40.361Z,24.87
2023-01-23T06:31:09.355Z,24.60
2023-01-23T06:33:38.875Z,24.43
2023-01-23T06:36:06.798Z,23.33
2023-01-23T06:38:33.520Z,24.83
2023-01-23T06:41:00.024Z,25.53
2023-01-23T06:43:27.181Z,23.63
2023-01-23T06:45:53.710Z,25.23
2023-01-23T06:48:20.844Z,25.03
2023-01-23T06:50:47.833Z,24.77
2023-01-23T06:53:15.538Z,24.50
2023-01-23T06:55:42.281Z,25.87
2023-01-23T06:58:09.192Z,24.50
2023-01-23T07:00:35.773Z,23.20
2023-01-23T07:03:05.486Z,27.27
2023-01-23T07:05:33.056Z,24.57
2023-01-23T07:07:59.591Z,25.27
2023-01-23T07:10:26.411Z,25.03
2023-01-23T07:12:53.272Z,25.00
2023-01-23T07:15:19.765Z,23.20
2023-01-23T07:17:46.259Z,24.73
2023-01-23T07:20:13.104Z,23.70
2023-01-23T07:22:40.112Z,23.43
2023-01-23T07:25:07.925Z,25.47
2023-01-23T07:27:34.716Z,23.03
2023-01-23T07:30:01.249Z,23.47
2023-01-23T07:32:27.831Z,24.47
2023-01-23T07:34:54.968Z,24.87
2023-01-23T07:37:21.597Z,25.27
2023-01-23T07:39:49.133Z,25.17
2023-01-23T07:42:15.872Z,24.60
2023-01-23T07:44:42.399Z,25.23
2023-01-23T07:47:09.062Z,22.90
2023-01-23T07:49:35.861Z,22.80
2023-01-23T07:52:02.479Z,26.30
2023-01-23T07:54:29.036Z,24.63
2023-01-23T07:56:56.385Z,24.17
2023-01-23T07:59:22.927Z,25.30
2023-01-23T08:01:51.290Z,24.03
2023-01-23T08:04:21.060Z,23.90
2023-01-23T08:06:47.639Z,23.83
2023-01-23T08:09:14.352Z,23.20
2023-01-23T08:11:41.654Z,26.17
2023-01-23T08:14:08.146Z,24.93
2023-01-23T08:16:34.749Z,23.90
2023-01-23T08:19:01.563Z,24.83
2023-01-23T08:21:28.107Z,24.57
2023-01-23T08:23:54.551Z,23.37
2023-01-23T08:26:21.403Z,23.40
2023-01-23T08:28:47.979Z,24.83
2023-01-23T08:31:15.871Z,24.50
2023-01-23T08:33:42.904Z,24.10
2023-01-23T08:36:12.235Z,23.73
2023-01-23T08:38:38.991Z,24.23
2023-01-23T08:41:05.765Z,23.37
2023-01-23T08:43:32.435Z,23.97
2023-01-23T08:45:59.745Z,23.63
2023-01-23T08:48:27.670Z,22.93
2023-01-23T08:51:03.210Z,23.93
2023-01-23T08:53:30.994Z,23.37
2023-01-23T08:56:05.048Z,23.93
2023-01-23T08:58:31.994Z,22.30
2023-01-23T09:00:58.664Z,23.13
2023-01-23T09:03:25.300Z,21.83
2023-01-23T09:05:52.032Z,22.30
2023-01-23T09:08:18.668Z,21.67
2023-01-23T09:10:45.154Z,22.57
2023-01-23T09:13:12.109Z,24.43
2023-01-23T09:15:40.024Z,23.33
2023-01-23T09:18:06.583Z,22.33
2023-01-23T09:20:33.338Z,22.90
2023-01-23T09:23:00.042Z,22.20
2023-01-23T09:25:26.735Z,23.17
2023-01-23T09:27:53.523Z,23.57
2023-01-23T09:30:20.521Z,22.57
2023-01-23T09:32:47.317Z,22.37
2023-01-23T09:35:13.961Z,22.80
2023-01-23T09:37:59.721Z,23.50
2023-01-23T09:40:35.573Z,24.37
2023-01-23T09:43:09.690Z,24.03
2023-01-23T09:45:37.396Z,24.27
2023-01-23T09:48:24.268Z,24.03
2023-01-23T09:51:01.657Z,23.57
2023-01-23T09:53:35.281Z,24.37
2023-01-23T09:56:23.267Z,22.53
2023-01-23T09:59:24.799Z,22.00
2023-01-23T10:01:51.576Z,22.97
2023-01-23T10:04:19.754Z,22.60
2023-01-23T10:07:08.473Z,23.77
2023-01-23T10:10:14.896Z,22.40
2023-01-23T10:13:03.111Z,23.60
2023-01-23T10:15:53.699Z,24.27
2023-01-23T10:18:28.524Z,23.90
2023-01-23T10:21:08.082Z,23.97
2023-01-23T10:23:57.451Z,23.00
2023-01-23T10:26:28.057Z,23.60
2023-01-23T10:28:59.753Z,22.90
2023-01-23T10:31:38.536Z,23.93
2023-01-23T10:34:11.376Z,23.40
2023-01-23T10:36:53.865Z,23.70
2023-01-23T10:39:26.883Z,21.80
2023-01-23T10:42:01.492Z,22.33
2023-01-23T10:44:28.824Z,23.23
2023-01-23T10:47:00.996Z,22.87
2023-01-23T10:49:35.186Z,22.90
2023-01-23T10:52:02.234Z,21.70
2023-01-23T10:54:32.563Z,21.37
2023-01-23T10:57:02.553Z,21.40
2023-01-23T10:59:36.233Z,19.80
2023-01-23T11:02:18.595Z,21.80
2023-01-23T11:04:47.535Z,20.37
2023-01-23T11:07:19.995Z,21.17
2023-01-23T11:10:12.229Z,20.83
2023-01-23T11:12:50.387Z,20.97
2023-01-23T11:15:31.502Z,21.07
2023-01-23T11:18:01.091Z,20.87
2023-01-23T11:20:37.521Z,21.57
2023-01-23T11:23:16.002Z,20.97
2023-01-23T11:25:43.576Z,22.07
2023-01-23T11:28:31.187Z,20.47
2023-01-23T11:31:16.260Z,20.93
2023-01-23T11:33:54.960Z,21.90
2023-01-23T11:36:38.655Z,20.97
2023-01-23T11:39:35.954Z,21.17
2023-01-23T11:42:02.727Z,21.23
2023-01-23T11:44:32.347Z,21.43
2023-01-23T11:47:07.571Z,20.77
2023-01-23T11:50:02.039Z,21.37
2023-01-23T11:52:34.738Z,21.43
2023-01-23T11:55:26.341Z,20.93
2023-01-23T11:58:14.772Z,21.93
2023-01-23T12:00:41.558Z,21.07
2023-01-23T12:03:18.168Z,20.50
2023-01-23T12:06:13.818Z,20.63
2023-01-23T12:09:16.774Z,21.17
2023-01-23T12:12:24.613Z,22.57
2023-01-23T12:15:05.193Z,22.47
2023-01-23T12:17:42.676Z,23.07
2023-01-23T12:20:24.289Z,23.07
2023-01-23T12:23:08.941Z,22.17
2023-01-23T12:25:40.060Z,23.37
2023-01-23T12:28:18.131Z,23.57
2023-01-23T12:31:05.581Z,23.70
2023-01-23T12:33:43.680Z,23.70
2023-01-23T12:36:32.079Z,23.20
2023-01-23T12:39:21.004Z,23.30
2023-01-23T12:41:53.540Z,24.10
2023-01-23T12:44:42.046Z,24.60
2023-01-23T12:47:16.787Z,24.60
2023-01-23T12:49:58.762Z,24.33
2023-01-23T12:52:34.982Z,23.73
2023-01-23T12:55:19.247Z,23.40
2023-01-23T12:57:59.612Z,24.50
2023-01-23T13:00:52.858Z,23.87
2023-01-23T13:03:37.457Z,22.93
2023-01-23T13:06:18.625Z,23.67
2023-01-23T13:09:18.720Z,24.23
2023-01-23T13:12:23.615Z,25.33
2023-01-23T13:15:34.434Z,25.73
2023-01-23T13:18:03.553Z,23.27
2023-01-23T13:20:56.704Z,23.93
2023-01-23T13:23:32.603Z,22.63
2023-01-23T13:26:19.682Z,21.83
2023-01-23T13:28:57.184Z,22.00
2023-01-23T13:31:36.893Z,21.83
2023-01-23T13:34:16.221Z,22.57
2023-01-23T13:36:44.273Z,21.13
2023-01-23T13:39:16.809Z,21.80
2023-01-23T13:41:44.728Z,23.87
2023-01-23T13:44:40.874Z,22.43
2023-01-23T14:24:47.534Z,20.03
2023-01-23T14:27:52.270Z,20.43
2023-01-23T14:30:24.906Z,19.33
2023-01-23T14:32:51.802Z,19.57
2023-01-23T14:35:41.429Z,19.97
2023-01-23T14:38:08.267Z,20.17
2023-01-23T14:40:48.852Z,19.33
2023-01-23T14:43:28.082Z,19.50
2023-01-23T14:46:01.873Z,20.00
2023-01-23T14:48:29.482Z,20.27
2023-01-23T14:51:23.488Z,20.73
2023-01-23T14:54:05.173Z,19.90
2023-01-23T14:56:38.124Z,20.33
2023-01-23T14:59:07.146Z,20.47
2023-01-23T15:01:35.835Z,20.33
2023-01-23T15:04:21.310Z,21.30
2023-01-23T15:06:53.031Z,20.93
2023-01-23T15:09:32.301Z,20.87
2023-01-23T15:12:07.165Z,20.57
2023-01-23T15:14:43.548Z,20.50
2023-01-23T15:17:15.221Z,20.70
2023-01-23T15:19:42.155Z,21.83
2023-01-23T15:22:19.555Z,21.30
2023-01-23T15:24:46.855Z,21.43
2023-01-23T15:27:32.789Z,21.73
2023-01-23T15:30:33.198Z,20.50
2023-01-23T15:33:06.292Z,22.47
2023-01-23T15:35:37.888Z,21.17
2023-01-23T15:38:06.708Z,23.97
2023-01-23T15:40:38.701Z,23.90
2023-01-23T15:43:13.443Z,22.13
2023-01-23T15:45:40.433Z,22.87
2023-01-23T15:48:06.981Z,23.03
2023-01-23T15:50:33.687Z,23.47
2023-01-23T15:53:00.328Z,24.53
2023-01-23T15:55:27.350Z,27.40
2023-01-23T15:57:54.580Z,26.43
2023-01-23T16:00:27.187Z,26.67
2023-01-23T16:02:57.285Z,27.17
2023-01-23T16:05:35.367Z,25.13
2023-01-23T16:08:02.564Z,26.97
2023-01-23T16:10:31.774Z,23.90
2023-01-23T16:12:58.900Z,24.30
2023-01-23T16:15:30.801Z,23.97
2023-01-23T16:17:57.422Z,24.43
2023-01-23T16:20:28.536Z,23.97
2023-01-23T16:23:01.860Z,26.57
2023-01-23T16:25:44.000Z,24.10
2023-01-23T16:28:16.785Z,24.43
2023-01-23T16:30:44.232Z,25.63
2023-01-23T16:33:11.069Z,25.37
2023-01-23T16:35:37.742Z,26.13
2023-01-23T16:38:05.584Z,25.13
2023-01-23T16:40:32.711Z,25.63
2023-01-23T16:42:59.990Z,25.93
2023-01-23T16:45:28.675Z,24.97
2023-01-23T16:47:55.550Z,25.23
2023-01-23T16:50:34.027Z,26.23
2023-01-23T16:53:04.705Z,26.57
2023-01-23T16:55:41.912Z,24.63
2023-01-23T16:58:14.471Z,24.10
2023-01-23T17:00:44.494Z,26.10
2023-01-23T17:03:11.189Z,24.33
2023-01-23T17:05:37.840Z,24.17
2023-01-23T17:08:21.647Z,26.00
2023-01-23T17:10:51.193Z,26.07
2023-01-23T17:13:18.669Z,25.47
2023-01-23T17:15:45.566Z,25.23
2023-01-23T17:18:33.697Z,26.80
2023-01-23T17:21:00.488Z,24.50
2023-01-23T17:23:27.272Z,26.33
2023-01-23T17:26:00.731Z,24.43
2023-01-23T17:28:28.705Z,25.20
2023-01-23T17:50:44.381Z,27.53
2023-01-23T17:53:17.339Z,26.53
2023-01-23T17:55:48.057Z,26.30
2023-01-23T17:58:15.394Z,26.63
2023-01-23T18:00:43.428Z,26.00
2023-01-23T18:03:14.306Z,27.23
2023-01-23T18:05:40.947Z,27.17
2023-01-23T18:08:10.807Z,26.43
2023-01-23T18:10:37.867Z,27.60
2023-01-23T18:13:16.456Z,26.63
2023-01-23T18:16:12.937Z,26.30
2023-01-23T18:18:40.669Z,28.27
2023-01-23T18:21:14.045Z,28.03
2023-01-23T18:23:41.051Z,27.33
2023-01-23T18:26:16.445Z,27.93
2023-01-23T18:28:54.894Z,28.17
2023-01-23T18:31:27.484Z,27.87
2023-01-23T18:34:06.089Z,27.27
2023-01-23T18:36:53.482Z,25.40
2023-01-23T18:42:59.427Z,28.37
2023-01-23T18:45:27.635Z,27.60
2023-01-23T18:47:54.786Z,29.43
2023-01-23T18:50:27.103Z,28.30
2023-01-23T18:53:16.395Z,29.17
2023-01-23T18:55:48.592Z,27.37
2023-01-23T19:01:39.808Z,28.57
2023-01-23T19:04:13.642Z,28.80
2023-01-23T19:06:41.299Z,30.57
2023-01-23T19:09:18.523Z,28.50
2023-01-23T19:11:56.998Z,28.73
2023-01-23T19:14:50.787Z,29.20
2023-01-23T19:17:20.532Z,28.40
2023-01-23T19:20:01.003Z,30.00
2023-01-23T19:22:34.612Z,29.33
2023-01-23T19:25:01.486Z,29.03
2023-01-23T19:27:29.568Z,28.50
2023-01-23T19:29:56.249Z,27.63
2023-01-23T19:32:23.317Z,28.43
2023-01-23T19:34:49.804Z,29.07
2023-01-23T19:37:16.536Z,27.80
2023-01-23T19:39:43.334Z,29.43
2023-01-23T19:42:14.571Z,28.03
2023-01-23T19:44:41.681Z,27.63
2023-01-23T19:47:08.680Z,28.93
2023-01-23T19:49:35.827Z,28.23
2023-01-23T19:52:03.637Z,28.30
2023-01-23T19:54:30.429Z,28.40
2023-01-23T19:56:57.521Z,29.53
2023-01-23T19:59:25.165Z,28.80
2023-01-23T20:01:52.641Z,28.47
2023-01-23T20:04:21.339Z,29.73
2023-01-23T20:06:52.002Z,30.00
2023-01-23T20:09:18.968Z,31.50
2023-01-23T20:11:46.506Z,31.50
2023-01-23T20:14:13.663Z,30.30
2023-01-23T20:16:42.817Z,31.67
2023-01-23T20:19:13.980Z,30.67
2023-01-23T20:21:40.871Z,31.23
2023-01-23T20:24:08.457Z,33.37
2023-01-23T20:26:36.055Z,33.30
2023-01-23T20:29:04.190Z,33.77
2023-01-23T20:31:31.928Z,33.47
2023-01-23T20:33:58.625Z,32.77
2023-01-23T20:36:25.464Z,32.77
2023-01-23T20:38:52.162Z,32.70
2023-01-23T20:41:20.117Z,32.93
2023-01-23T20:43:47.235Z,34.03
2023-01-23T20:46:14.984Z,34.80
2023-01-23T20:48:46.130Z,35.30
2023-01-23T20:51:16.542Z,33.40
2023-01-23T20:53:43.164Z,35.30
2023-01-23T20:56:19.007Z,33.33
2023-01-23T20:59:06.229Z,35.47
2023-01-23T21:01:55.716Z,36.13
2023-01-23T21:04:23.955Z,34.30
2023-01-23T21:06:50.463Z,34.70
2023-01-23T21:09:17.501Z,35.67
2023-01-23T21:11:44.153Z,37.27
2023-01-23T21:14:11.278Z,35.17
2023-01-23T21:16:37.808Z,35.70
2023-01-23T21:19:04.298Z,34.30
2023-01-23T21:21:30.859Z,34.73
2023-01-23T21:23:57.556Z,36.90
2023-01-23T21:26:26.412Z,37.33
2023-01-23T21:28:54.337Z,36.60
2023-01-23T21:31:24.719Z,35.07
2023-01-23T21:33:51.425Z,36.80
2023-01-23T21:36:20.866Z,37.77
2023-01-23T21:38:47.573Z,36.80
2023-01-23T21:41:14.370Z,36.67
2023-01-23T21:43:42.227Z,34.83
2023-01-23T21:46:08.961Z,36.57
2023-01-23T21:48:35.998Z,37.40
2023-01-23T21:51:20.079Z,36.00
2023-01-23T21:53:48.389Z,37.50
2023-01-23T21:56:16.674Z,36.87
2023-01-23T21:58:43.547Z,34.37
2023-01-23T22:01:37.505Z,35.33
2023-01-23T22:04:07.274Z,34.13
2023-01-23T22:06:34.909Z,36.73
2023-01-23T22:09:01.545Z,35.70
2023-01-23T22:11:28.374Z,36.70
2023-01-23T22:13:55.389Z,34.73
2023-01-23T22:16:28.495Z,34.70
2023-01-23T22:19:06.966Z,36.33
2023-01-23T22:21:34.192Z,35.07
2023-01-23T22:24:01.479Z,36.37
2023-01-23T22:26:28.411Z,36.03
2023-01-23T22:28:55.027Z,34.07
2023-01-23T22:31:21.688Z,34.20
2023-01-23T22:33:48.763Z,35.17
2023-01-23T22:36:19.381Z,35.47
2023-01-23T22:38:55.832Z,35.73
2023-01-23T22:41:22.958Z,35.83
2023-01-23T22:43:54.248Z,35.80
2023-01-23T22:46:21.385Z,34.43
2023-01-23T22:48:47.910Z,34.07
2023-01-23T22:51:25.737Z,34.70
2023-01-23T22:53:53.592Z,35.00
2023-01-23T22:56:20.450Z,35.23
2023-01-23T22:58:48.196Z,34.93
2023-01-23T23:01:15.091Z,32.93
2023-01-23T23:03:41.681Z,35.23
2023-01-23T23:06:11.531Z,34.43
2023-01-23T23:08:38.273Z,34.30
2023-01-23T23:11:07.532Z,34.30
2023-01-23T23:13:36.942Z,35.50
2023-01-23T23:16:20.746Z,34.77
2023-01-23T23:18:48.658Z,32.63
2023-01-23T23:21:17.756Z,35.43
2023-01-23T23:23:44.392Z,33.73
2023-01-23T23:26:11.237Z,35.17
2023-01-23T23:28:38.830Z,34.37
2023-01-23T23:31:06.569Z,33.83
2023-01-23T23:33:33.308Z,33.40
2023-01-23T23:36:00.037Z,34.07
2023-01-23T23:38:26.548Z,33.73
2023-01-23T23:41:00.110Z,34.20
2023-01-23T23:43:27.360Z,35.13
2023-01-23T23:45:58.354Z,33.23
2023-01-23T23:48:25.908Z,34.00
2023-01-23T23:50:52.723Z,34.23
2023-01-23T23:53:19.317Z,35.87
2023-01-23T23:55:46.476Z,34.47
2023-01-23T23:58:13.093Z,33.40
